sensor_id;sensor_type;location;lat;lon;timestamp;temperature;humidity
4687;DHT22;2357;47.316;-1.348;2024-03-29T00:01:23;9.60;99.90
4687;DHT22;2357;47.316;-1.348;2024-03-29T00:03:49;9.60;99.90
4687;DHT22;2357;47.316;-1.348;2024-03-29T00:06:15;9.60;99.90
4687;DHT22;2357;47.316;-1.348;2024-03-29T00:08:40;9.60;99.90
4687;DHT22;2357;47.316;-1.348;2024-03-29T00:11:06;9.40;99.90
4687;DHT22;2357;47.316;-1.348;2024-03-29T00:13:32;9.50;99.90
4687;DHT22;2357;47.316;-1.348;2024-03-29T00:15:57;9.50;99.90
4687;DHT22;2357;47.316;-1.348;2024-03-29T00:18:23;9.50;99.90
4687;DHT22;2357;47.316;-1.348;2024-03-29T00:20:49;9.50;99.90
4687;DHT22;2357;47.316;-1.348;2024-03-29T00:23:15;9.50;99.90
4687;DHT22;2357;47.316;-1.348;2024-03-29T00:25:40;9.50;99.90
4687;DHT22;2357;47.316;-1.348;2024-03-29T00:28:06;9.40;99.90
4687;DHT22;2357;47.316;-1.348;2024-03-29T00:30:32;9.40;99.90
4687;DHT22;2357;47.316;-1.348;2024-03-29T00:32:57;9.40;99.90
4687;DHT22;2357;47.316;-1.348;2024-03-29T00:35:23;9.50;99.90
4687;DHT22;2357;47.316;-1.348;2024-03-29T00:37:49;9.50;99.90
4687;DHT22;2357;47.316;-1.348;2024-03-29T00:40:16;9.50;99.90
4687;DHT22;2357;47.316;-1.348;2024-03-29T00:42:41;9.50;99.90
4687;DHT22;2357;47.316;-1.348;2024-03-29T00:45:07;9.50;99.90
4687;DHT22;2357;47.316;-1.348;2024-03-29T00:47:33;9.50;99.90
4687;DHT22;2357;47.316;-1.348;2024-03-29T00:49:59;9.50;99.90
4687;DHT22;2357;47.316;-1.348;2024-03-29T00:52:24;9.50;99.90
4687;DHT22;2357;47.316;-1.348;2024-03-29T00:54:50;9.50;99.90
4687;DHT22;2357;47.316;-1.348;2024-03-29T00:57:16;9.50;99.90
4687;DHT22;2357;47.316;-1.348;2024-03-29T00:59:42;9.50;99.90
4687;DHT22;2357;47.316;-1.348;2024-03-29T01:02:09;9.50;99.90
4687;DHT22;2357;47.316;-1.348;2024-03-29T01:04:35;9.50;99.90
4687;DHT22;2357;47.316;-1.348;2024-03-29T01:07:00;9.60;99.90
4687;DHT22;2357;47.316;-1.348;2024-03-29T01:09:26;9.50;99.90
4687;DHT22;2357;47.316;-1.348;2024-03-29T01:11:51;9.60;99.90
4687;DHT22;2357;47.316;-1.348;2024-03-29T01:14:17;9.60;99.90
4687;DHT22;2357;47.316;-1.348;2024-03-29T01:16:43;9.50;99.90
4687;DHT22;2357;47.316;-1.348;2024-03-29T01:19:09;9.60;99.90
4687;DHT22;2357;47.316;-1.348;2024-03-29T01:21:35;9.60;99.90
4687;DHT22;2357;47.316;-1.348;2024-03-29T01:24:01;9.60;99.90
4687;DHT22;2357;47.316;-1.348;2024-03-29T01:26:27;9.60;99.90
4687;DHT22;2357;47.316;-1.348;2024-03-29T01:28:52;9.60;99.90
4687;DHT22;2357;47.316;-1.348;2024-03-29T01:31:18;9.60;99.90
4687;DHT22;2357;47.316;-1.348;2024-03-29T01:33:43;9.50;99.90
4687;DHT22;2357;47.316;-1.348;2024-03-29T01:36:09;9.60;99.90
4687;DHT22;2357;47.316;-1.348;2024-03-29T01:38:35;9.50;99.90
4687;DHT22;2357;47.316;-1.348;2024-03-29T01:41:01;9.40;99.90
4687;DHT22;2357;47.316;-1.348;2024-03-29T01:43:28;9.40;99.90
4687;DHT22;2357;47.316;-1.348;2024-03-29T01:45:54;9.40;99.90
4687;DHT22;2357;47.316;-1.348;2024-03-29T01:48:24;9.40;99.90
4687;DHT22;2357;47.316;-1.348;2024-03-29T01:50:52;9.30;99.90
4687;DHT22;2357;47.316;-1.348;2024-03-29T01:53:19;9.40;99.90
4687;DHT22;2357;47.316;-1.348;2024-03-29T01:55:45;9.30;99.90
4687;DHT22;2357;47.316;-1.348;2024-03-29T01:58:11;9.40;99.90
4687;DHT22;2357;47.316;-1.348;2024-03-29T02:03:06;9.30;99.90
4687;DHT22;2357;47.316;-1.348;2024-03-29T02:05:35;9.40;99.90
4687;DHT22;2357;47.316;-1.348;2024-03-29T02:08:03;9.20;99.90
4687;DHT22;2357;47.316;-1.348;2024-03-29T02:10:29;9.30;99.90
4687;DHT22;2357;47.316;-1.348;2024-03-29T02:12:55;9.30;99.90
4687;DHT22;2357;47.316;-1.348;2024-03-29T02:15:20;9.30;99.90
4687;DHT22;2357;47.316;-1.348;2024-03-29T02:17:46;9.30;99.90
4687;DHT22;2357;47.316;-1.348;2024-03-29T02:20:12;9.40;99.90
4687;DHT22;2357;47.316;-1.348;2024-03-29T02:22:43;9.40;99.90
4687;DHT22;2357;47.316;-1.348;2024-03-29T02:25:12;9.40;99.90
4687;DHT22;2357;47.316;-1.348;2024-03-29T02:27:38;9.50;99.90
4687;DHT22;2357;47.316;-1.348;2024-03-29T02:30:04;9.40;99.90
4687;DHT22;2357;47.316;-1.348;2024-03-29T02:32:30;9.40;99.90
4687;DHT22;2357;47.316;-1.348;2024-03-29T02:34:56;9.50;99.90
4687;DHT22;2357;47.316;-1.348;2024-03-29T02:37:21;9.50;99.90
4687;DHT22;2357;47.316;-1.348;2024-03-29T02:39:47;9.50;99.90
4687;DHT22;2357;47.316;-1.348;2024-03-29T02:42:12;9.50;99.90
4687;DHT22;2357;47.316;-1.348;2024-03-29T02:44:38;9.50;99.90
4687;DHT22;2357;47.316;-1.348;2024-03-29T02:47:04;9.40;99.90
4687;DHT22;2357;47.316;-1.348;2024-03-29T02:49:29;9.30;99.90
4687;DHT22;2357;47.316;-1.348;2024-03-29T02:51:55;9.40;99.90
4687;DHT22;2357;47.316;-1.348;2024-03-29T02:54:20;9.30;99.90
4687;DHT22;2357;47.316;-1.348;2024-03-29T02:56:46;9.30;99.90
4687;DHT22;2357;47.316;-1.348;2024-03-29T02:59:12;9.30;99.90
4687;DHT22;2357;47.316;-1.348;2024-03-29T03:01:37;9.30;99.90
4687;DHT22;2357;47.316;-1.348;2024-03-29T03:04:06;9.30;99.90
4687;DHT22;2357;47.316;-1.348;2024-03-29T03:06:31;9.30;99.90
4687;DHT22;2357;47.316;-1.348;2024-03-29T03:08:57;9.20;99.90
4687;DHT22;2357;47.316;-1.348;2024-03-29T03:11:41;9.30;99.90
4687;DHT22;2357;47.316;-1.348;2024-03-29T03:14:07;9.30;99.90
4687;DHT22;2357;47.316;-1.348;2024-03-29T03:16:32;9.30;99.90
4687;DHT22;2357;47.316;-1.348;2024-03-29T03:18:58;9.30;99.90
4687;DHT22;2357;47.316;-1.348;2024-03-29T03:21:25;9.30;99.90
4687;DHT22;2357;47.316;-1.348;2024-03-29T03:23:50;9.30;99.90
4687;DHT22;2357;47.316;-1.348;2024-03-29T03:26:16;9.30;99.90
4687;DHT22;2357;47.316;-1.348;2024-03-29T03:28:42;9.20;99.90
4687;DHT22;2357;47.316;-1.348;2024-03-29T03:31:07;9.30;99.90
4687;DHT22;2357;47.316;-1.348;2024-03-29T03:33:34;9.20;99.90
4687;DHT22;2357;47.316;-1.348;2024-03-29T03:36:00;9.20;99.90
4687;DHT22;2357;47.316;-1.348;2024-03-29T03:38:25;9.10;99.90
4687;DHT22;2357;47.316;-1.348;2024-03-29T03:40:51;9.10;99.90
4687;DHT22;2357;47.316;-1.348;2024-03-29T03:43:16;9.00;99.90
4687;DHT22;2357;47.316;-1.348;2024-03-29T03:45:42;9.00;99.90
4687;DHT22;2357;47.316;-1.348;2024-03-29T03:48:10;9.00;99.90
4687;DHT22;2357;47.316;-1.348;2024-03-29T03:50:37;8.90;99.90
4687;DHT22;2357;47.316;-1.348;2024-03-29T03:53:03;9.00;99.90
4687;DHT22;2357;47.316;-1.348;2024-03-29T03:55:29;9.00;99.90
4687;DHT22;2357;47.316;-1.348;2024-03-29T03:57:55;8.90;99.90
4687;DHT22;2357;47.316;-1.348;2024-03-29T04:00:22;8.90;99.90
4687;DHT22;2357;47.316;-1.348;2024-03-29T04:02:51;8.90;99.90
4687;DHT22;2357;47.316;-1.348;2024-03-29T04:05:20;8.80;99.90
4687;DHT22;2357;47.316;-1.348;2024-03-29T04:07:46;8.80;99.90
4687;DHT22;2357;47.316;-1.348;2024-03-29T04:10:13;8.80;99.90
4687;DHT22;2357;47.316;-1.348;2024-03-29T04:12:39;8.80;99.90
4687;DHT22;2357;47.316;-1.348;2024-03-29T04:15:05;8.80;99.90
4687;DHT22;2357;47.316;-1.348;2024-03-29T04:17:32;8.90;99.90
4687;DHT22;2357;47.316;-1.348;2024-03-29T04:20:01;8.90;99.90
4687;DHT22;2357;47.316;-1.348;2024-03-29T04:22:30;8.90;99.90
4687;DHT22;2357;47.316;-1.348;2024-03-29T04:24:56;8.90;99.90
4687;DHT22;2357;47.316;-1.348;2024-03-29T04:27:22;8.90;99.90
4687;DHT22;2357;47.316;-1.348;2024-03-29T04:29:51;8.90;99.90
4687;DHT22;2357;47.316;-1.348;2024-03-29T04:32:17;8.90;99.90
4687;DHT22;2357;47.316;-1.348;2024-03-29T04:34:45;8.90;99.90
4687;DHT22;2357;47.316;-1.348;2024-03-29T04:37:11;8.80;99.90
4687;DHT22;2357;47.316;-1.348;2024-03-29T04:39:36;8.70;99.90
4687;DHT22;2357;47.316;-1.348;2024-03-29T04:42:02;8.80;99.90
4687;DHT22;2357;47.316;-1.348;2024-03-29T04:44:28;8.70;99.90
4687;DHT22;2357;47.316;-1.348;2024-03-29T04:46:54;8.70;99.90
4687;DHT22;2357;47.316;-1.348;2024-03-29T04:49:22;8.70;99.90
4687;DHT22;2357;47.316;-1.348;2024-03-29T04:51:56;8.60;99.90
4687;DHT22;2357;47.316;-1.348;2024-03-29T04:54:21;8.80;99.90
4687;DHT22;2357;47.316;-1.348;2024-03-29T04:56:47;8.70;99.90
4687;DHT22;2357;47.316;-1.348;2024-03-29T04:59:12;8.70;99.90
4687;DHT22;2357;47.316;-1.348;2024-03-29T05:01:42;8.60;99.90
4687;DHT22;2357;47.316;-1.348;2024-03-29T05:04:09;8.60;99.90
4687;DHT22;2357;47.316;-1.348;2024-03-29T05:06:35;8.60;99.90
4687;DHT22;2357;47.316;-1.348;2024-03-29T05:09:01;8.70;99.90
4687;DHT22;2357;47.316;-1.348;2024-03-29T05:11:27;8.70;99.90
4687;DHT22;2357;47.316;-1.348;2024-03-29T05:13:52;8.70;99.90
4687;DHT22;2357;47.316;-1.348;2024-03-29T05:16:18;8.70;99.90
4687;DHT22;2357;47.316;-1.348;2024-03-29T05:18:44;8.80;99.90
4687;DHT22;2357;47.316;-1.348;2024-03-29T05:21:09;8.70;99.90
4687;DHT22;2357;47.316;-1.348;2024-03-29T05:23:35;8.70;99.90
4687;DHT22;2357;47.316;-1.348;2024-03-29T05:26:01;8.70;99.90
4687;DHT22;2357;47.316;-1.348;2024-03-29T05:28:27;8.70;99.90
4687;DHT22;2357;47.316;-1.348;2024-03-29T05:30:53;8.70;99.90
4687;DHT22;2357;47.316;-1.348;2024-03-29T05:33:18;8.80;99.90
4687;DHT22;2357;47.316;-1.348;2024-03-29T05:35:44;8.80;99.90
4687;DHT22;2357;47.316;-1.348;2024-03-29T05:38:10;8.80;99.90
4687;DHT22;2357;47.316;-1.348;2024-03-29T05:40:35;8.80;99.90
4687;DHT22;2357;47.316;-1.348;2024-03-29T05:43:03;8.80;99.90
4687;DHT22;2357;47.316;-1.348;2024-03-29T05:45:29;8.80;99.90
4687;DHT22;2357;47.316;-1.348;2024-03-29T05:47:56;8.80;99.90
4687;DHT22;2357;47.316;-1.348;2024-03-29T05:50:23;8.70;99.90
4687;DHT22;2357;47.316;-1.348;2024-03-29T05:52:50;8.80;99.90
4687;DHT22;2357;47.316;-1.348;2024-03-29T05:55:16;8.80;99.90
4687;DHT22;2357;47.316;-1.348;2024-03-29T05:57:42;8.80;99.90
4687;DHT22;2357;47.316;-1.348;2024-03-29T06:00:11;8.80;99.90
4687;DHT22;2357;47.316;-1.348;2024-03-29T06:02:37;8.80;99.90
4687;DHT22;2357;47.316;-1.348;2024-03-29T06:05:03;8.80;99.90
4687;DHT22;2357;47.316;-1.348;2024-03-29T06:07:31;8.80;99.90
4687;DHT22;2357;47.316;-1.348;2024-03-29T06:09:58;8.90;99.90
4687;DHT22;2357;47.316;-1.348;2024-03-29T06:12:25;8.80;99.90
4687;DHT22;2357;47.316;-1.348;2024-03-29T06:14:51;8.90;99.90
4687;DHT22;2357;47.316;-1.348;2024-03-29T06:17:35;8.90;99.90
4687;DHT22;2357;47.316;-1.348;2024-03-29T06:20:02;9.00;99.90
4687;DHT22;2357;47.316;-1.348;2024-03-29T06:22:29;9.00;99.90
4687;DHT22;2357;47.316;-1.348;2024-03-29T06:24:56;9.00;99.90
4687;DHT22;2357;47.316;-1.348;2024-03-29T06:27:33;9.00;99.90
4687;DHT22;2357;47.316;-1.348;2024-03-29T06:29:59;9.10;99.90
4687;DHT22;2357;47.316;-1.348;2024-03-29T06:32:25;9.20;99.90
4687;DHT22;2357;47.316;-1.348;2024-03-29T06:34:50;9.10;99.90
4687;DHT22;2357;47.316;-1.348;2024-03-29T06:37:16;9.20;99.90
4687;DHT22;2357;47.316;-1.348;2024-03-29T06:39:42;9.10;99.90
4687;DHT22;2357;47.316;-1.348;2024-03-29T06:42:09;9.10;99.90
4687;DHT22;2357;47.316;-1.348;2024-03-29T06:44:35;9.10;99.90
4687;DHT22;2357;47.316;-1.348;2024-03-29T06:47:02;9.20;99.90
4687;DHT22;2357;47.316;-1.348;2024-03-29T06:49:28;9.20;99.90
4687;DHT22;2357;47.316;-1.348;2024-03-29T06:51:53;9.20;99.90
4687;DHT22;2357;47.316;-1.348;2024-03-29T06:54:21;9.20;99.90
4687;DHT22;2357;47.316;-1.348;2024-03-29T06:56:51;9.30;99.90
4687;DHT22;2357;47.316;-1.348;2024-03-29T06:59:18;9.30;99.90
4687;DHT22;2357;47.316;-1.348;2024-03-29T07:01:43;9.30;99.90
4687;DHT22;2357;47.316;-1.348;2024-03-29T07:04:09;9.40;99.90
4687;DHT22;2357;47.316;-1.348;2024-03-29T07:06:34;9.30;99.90
4687;DHT22;2357;47.316;-1.348;2024-03-29T07:09:03;9.40;99.90
4687;DHT22;2357;47.316;-1.348;2024-03-29T07:11:29;9.40;99.90
4687;DHT22;2357;47.316;-1.348;2024-03-29T07:13:55;9.40;99.90
4687;DHT22;2357;47.316;-1.348;2024-03-29T07:16:21;9.50;99.90
4687;DHT22;2357;47.316;-1.348;2024-03-29T07:18:46;9.50;99.90
4687;DHT22;2357;47.316;-1.348;2024-03-29T07:21:12;9.50;99.90
4687;DHT22;2357;47.316;-1.348;2024-03-29T07:23:38;9.50;99.90
4687;DHT22;2357;47.316;-1.348;2024-03-29T07:26:04;9.60;99.90
4687;DHT22;2357;47.316;-1.348;2024-03-29T07:30:57;9.70;99.90
4687;DHT22;2357;47.316;-1.348;2024-03-29T07:33:24;9.80;99.90
4687;DHT22;2357;47.316;-1.348;2024-03-29T07:35:54;9.70;99.90
4687;DHT22;2357;47.316;-1.348;2024-03-29T07:38:21;9.70;99.90
4687;DHT22;2357;47.316;-1.348;2024-03-29T07:40:47;9.80;99.90
4687;DHT22;2357;47.316;-1.348;2024-03-29T07:43:13;9.80;99.90
4687;DHT22;2357;47.316;-1.348;2024-03-29T07:45:43;9.90;99.90
4687;DHT22;2357;47.316;-1.348;2024-03-29T07:48:17;9.90;99.90
4687;DHT22;2357;47.316;-1.348;2024-03-29T07:50:44;9.90;99.90
4687;DHT22;2357;47.316;-1.348;2024-03-29T07:53:10;10.00;99.90
4687;DHT22;2357;47.316;-1.348;2024-03-29T07:55:37;10.10;99.90
4687;DHT22;2357;47.316;-1.348;2024-03-29T07:58:04;10.10;99.90
4687;DHT22;2357;47.316;-1.348;2024-03-29T08:00:34;10.10;99.90
4687;DHT22;2357;47.316;-1.348;2024-03-29T08:03:00;10.10;99.90
4687;DHT22;2357;47.316;-1.348;2024-03-29T08:05:27;10.10;99.90
4687;DHT22;2357;47.316;-1.348;2024-03-29T08:07:53;10.20;99.90
4687;DHT22;2357;47.316;-1.348;2024-03-29T08:10:18;10.30;99.90
4687;DHT22;2357;47.316;-1.348;2024-03-29T08:12:44;10.30;99.90
4687;DHT22;2357;47.316;-1.348;2024-03-29T08:15:10;10.50;99.90
4687;DHT22;2357;47.316;-1.348;2024-03-29T08:17:36;10.20;99.90
4687;DHT22;2357;47.316;-1.348;2024-03-29T08:20:03;10.50;99.90
4687;DHT22;2357;47.316;-1.348;2024-03-29T08:22:28;10.50;99.90
4687;DHT22;2357;47.316;-1.348;2024-03-29T08:24:55;10.50;99.90
4687;DHT22;2357;47.316;-1.348;2024-03-29T08:27:20;10.50;99.90
4687;DHT22;2357;47.316;-1.348;2024-03-29T08:29:46;10.40;99.90
4687;DHT22;2357;47.316;-1.348;2024-03-29T08:32:14;10.40;99.90
4687;DHT22;2357;47.316;-1.348;2024-03-29T08:34:40;10.30;99.90
4687;DHT22;2357;47.316;-1.348;2024-03-29T08:37:05;10.30;99.90
4687;DHT22;2357;47.316;-1.348;2024-03-29T08:39:32;10.30;99.90
4687;DHT22;2357;47.316;-1.348;2024-03-29T08:41:58;10.40;99.90
4687;DHT22;2357;47.316;-1.348;2024-03-29T08:44:25;10.50;99.90
4687;DHT22;2357;47.316;-1.348;2024-03-29T08:46:51;10.70;99.90
4687;DHT22;2357;47.316;-1.348;2024-03-29T08:49:16;10.90;99.90
4687;DHT22;2357;47.316;-1.348;2024-03-29T08:51:42;11.00;99.90
4687;DHT22;2357;47.316;-1.348;2024-03-29T08:54:08;11.10;99.90
4687;DHT22;2357;47.316;-1.348;2024-03-29T08:56:33;11.20;99.90
4687;DHT22;2357;47.316;-1.348;2024-03-29T08:59:03;11.20;99.90
4687;DHT22;2357;47.316;-1.348;2024-03-29T09:01:33;11.30;99.90
4687;DHT22;2357;47.316;-1.348;2024-03-29T09:03:59;11.40;99.90
4687;DHT22;2357;47.316;-1.348;2024-03-29T09:06:25;11.50;99.90
4687;DHT22;2357;47.316;-1.348;2024-03-29T09:08:50;11.60;99.90
4687;DHT22;2357;47.316;-1.348;2024-03-29T09:11:16;11.60;99.90
4687;DHT22;2357;47.316;-1.348;2024-03-29T09:13:42;11.80;99.90
4687;DHT22;2357;47.316;-1.348;2024-03-29T09:16:07;11.80;99.90
4687;DHT22;2357;47.316;-1.348;2024-03-29T09:18:34;11.90;99.90
4687;DHT22;2357;47.316;-1.348;2024-03-29T09:21:00;11.90;99.90
4687;DHT22;2357;47.316;-1.348;2024-03-29T09:23:27;11.80;99.90
4687;DHT22;2357;47.316;-1.348;2024-03-29T09:25:58;12.20;99.90
4687;DHT22;2357;47.316;-1.348;2024-03-29T09:28:24;12.40;99.90
4687;DHT22;2357;47.316;-1.348;2024-03-29T09:30:50;12.50;99.90
4687;DHT22;2357;47.316;-1.348;2024-03-29T09:33:15;12.40;99.90
4687;DHT22;2357;47.316;-1.348;2024-03-29T09:35:41;12.50;99.90
4687;DHT22;2357;47.316;-1.348;2024-03-29T09:38:07;12.50;99.90
4687;DHT22;2357;47.316;-1.348;2024-03-29T09:40:33;12.30;99.90
4687;DHT22;2357;47.316;-1.348;2024-03-29T09:43:00;12.40;99.90
4687;DHT22;2357;47.316;-1.348;2024-03-29T09:45:34;12.60;99.90
4687;DHT22;2357;47.316;-1.348;2024-03-29T09:48:08;12.60;99.90
4687;DHT22;2357;47.316;-1.348;2024-03-29T09:50:37;12.60;99.90
4687;DHT22;2357;47.316;-1.348;2024-03-29T09:53:06;12.50;99.90
4687;DHT22;2357;47.316;-1.348;2024-03-29T09:55:33;12.50;99.90
4687;DHT22;2357;47.316;-1.348;2024-03-29T09:58:02;12.50;99.90
4687;DHT22;2357;47.316;-1.348;2024-03-29T10:00:28;12.90;99.90
4687;DHT22;2357;47.316;-1.348;2024-03-29T10:02:56;13.30;99.90
4687;DHT22;2357;47.316;-1.348;2024-03-29T10:05:23;13.50;99.90
4687;DHT22;2357;47.316;-1.348;2024-03-29T10:07:49;13.70;99.90
4687;DHT22;2357;47.316;-1.348;2024-03-29T10:10:15;13.60;99.90
4687;DHT22;2357;47.316;-1.348;2024-03-29T10:12:41;13.90;99.90
4687;DHT22;2357;47.316;-1.348;2024-03-29T10:15:07;13.90;99.90
4687;DHT22;2357;47.316;-1.348;2024-03-29T10:17:50;13.50;99.90
4687;DHT22;2357;47.316;-1.348;2024-03-29T10:20:16;13.70;99.90
4687;DHT22;2357;47.316;-1.348;2024-03-29T10:22:43;13.60;99.90
4687;DHT22;2357;47.316;-1.348;2024-03-29T10:25:10;13.50;99.90
4687;DHT22;2357;47.316;-1.348;2024-03-29T10:27:36;13.50;99.90
4687;DHT22;2357;47.316;-1.348;2024-03-29T10:30:02;13.60;99.90
4687;DHT22;2357;47.316;-1.348;2024-03-29T10:32:29;13.60;99.90
4687;DHT22;2357;47.316;-1.348;2024-03-29T10:34:55;13.70;99.90
4687;DHT22;2357;47.316;-1.348;2024-03-29T10:37:20;14.00;99.90
4687;DHT22;2357;47.316;-1.348;2024-03-29T10:39:52;14.40;99.90
4687;DHT22;2357;47.316;-1.348;2024-03-29T10:42:20;14.60;99.90
4687;DHT22;2357;47.316;-1.348;2024-03-29T10:44:48;14.50;99.90
4687;DHT22;2357;47.316;-1.348;2024-03-29T10:47:19;14.20;99.90
4687;DHT22;2357;47.316;-1.348;2024-03-29T10:49:50;14.00;99.90
4687;DHT22;2357;47.316;-1.348;2024-03-29T10:52:19;14.10;99.90
4687;DHT22;2357;47.316;-1.348;2024-03-29T10:54:47;14.10;99.90
4687;DHT22;2357;47.316;-1.348;2024-03-29T10:57:23;14.60;99.90
4687;DHT22;2357;47.316;-1.348;2024-03-29T11:00:03;14.30;99.90
4687;DHT22;2357;47.316;-1.348;2024-03-29T11:05:09;13.70;99.90
4687;DHT22;2357;47.316;-1.348;2024-03-29T11:07:39;13.50;99.90
4687;DHT22;2357;47.316;-1.348;2024-03-29T11:10:14;13.70;99.90
4687;DHT22;2357;47.316;-1.348;2024-03-29T11:12:58;13.80;99.90
4687;DHT22;2357;47.316;-1.348;2024-03-29T11:15:30;14.00;99.90
4687;DHT22;2357;47.316;-1.348;2024-03-29T11:17:57;14.40;99.90
4687;DHT22;2357;47.316;-1.348;2024-03-29T11:20:27;14.70;99.90
4687;DHT22;2357;47.316;-1.348;2024-03-29T11:23:05;14.80;99.90
4687;DHT22;2357;47.316;-1.348;2024-03-29T11:25:42;15.00;99.90
4687;DHT22;2357;47.316;-1.348;2024-03-29T11:28:08;14.80;99.90
4687;DHT22;2357;47.316;-1.348;2024-03-29T11:31:02;14.90;99.90
4687;DHT22;2357;47.316;-1.348;2024-03-29T11:33:51;14.80;99.90
4687;DHT22;2357;47.316;-1.348;2024-03-29T11:36:30;14.70;99.90
4687;DHT22;2357;47.316;-1.348;2024-03-29T11:38:57;14.80;99.90
4687;DHT22;2357;47.316;-1.348;2024-03-29T11:41:25;15.10;99.90
4687;DHT22;2357;47.316;-1.348;2024-03-29T11:43:56;15.40;99.90
4687;DHT22;2357;47.316;-1.348;2024-03-29T11:46:23;15.20;99.90
4687;DHT22;2357;47.316;-1.348;2024-03-29T11:48:49;15.10;99.90
4687;DHT22;2357;47.316;-1.348;2024-03-29T11:51:16;15.40;99.90
4687;DHT22;2357;47.316;-1.348;2024-03-29T11:53:44;15.20;99.90
4687;DHT22;2357;47.316;-1.348;2024-03-29T11:56:10;15.00;99.90
4687;DHT22;2357;47.316;-1.348;2024-03-29T11:58:39;15.00;99.90
4687;DHT22;2357;47.316;-1.348;2024-03-29T12:01:05;15.00;99.90
4687;DHT22;2357;47.316;-1.348;2024-03-29T12:03:32;15.30;99.90
4687;DHT22;2357;47.316;-1.348;2024-03-29T12:05:59;15.70;99.90
4687;DHT22;2357;47.316;-1.348;2024-03-29T12:08:32;15.80;99.90
4687;DHT22;2357;47.316;-1.348;2024-03-29T12:10:59;16.00;99.90
4687;DHT22;2357;47.316;-1.348;2024-03-29T12:13:25;15.80;99.90
4687;DHT22;2357;47.316;-1.348;2024-03-29T12:15:51;15.80;99.90
4687;DHT22;2357;47.316;-1.348;2024-03-29T12:18:19;15.50;99.90
4687;DHT22;2357;47.316;-1.348;2024-03-29T12:20:45;15.60;99.90
4687;DHT22;2357;47.316;-1.348;2024-03-29T12:23:19;15.70;99.90
4687;DHT22;2357;47.316;-1.348;2024-03-29T12:25:47;15.90;99.90
4687;DHT22;2357;47.316;-1.348;2024-03-29T12:28:14;15.70;99.90
4687;DHT22;2357;47.316;-1.348;2024-03-29T12:30:46;15.70;99.90
4687;DHT22;2357;47.316;-1.348;2024-03-29T12:33:20;15.70;99.90
4687;DHT22;2357;47.316;-1.348;2024-03-29T12:35:47;15.90;99.90
4687;DHT22;2357;47.316;-1.348;2024-03-29T12:38:18;16.00;99.90
4687;DHT22;2357;47.316;-1.348;2024-03-29T12:40:48;16.10;99.90
4687;DHT22;2357;47.316;-1.348;2024-03-29T12:43:15;15.90;99.90
4687;DHT22;2357;47.316;-1.348;2024-03-29T12:45:42;15.90;99.90
4687;DHT22;2357;47.316;-1.348;2024-03-29T12:48:13;15.90;99.90
4687;DHT22;2357;47.316;-1.348;2024-03-29T12:50:41;15.70;99.90
4687;DHT22;2357;47.316;-1.348;2024-03-29T12:53:09;15.80;99.90
4687;DHT22;2357;47.316;-1.348;2024-03-29T12:55:35;15.80;99.90
4687;DHT22;2357;47.316;-1.348;2024-03-29T12:58:02;15.80;99.90
4687;DHT22;2357;47.316;-1.348;2024-03-29T13:00:33;15.80;99.90
4687;DHT22;2357;47.316;-1.348;2024-03-29T13:02:58;15.70;99.90
4687;DHT22;2357;47.316;-1.348;2024-03-29T13:05:24;15.40;99.90
4687;DHT22;2357;47.316;-1.348;2024-03-29T13:07:50;15.40;99.90
4687;DHT22;2357;47.316;-1.348;2024-03-29T13:10:16;15.30;99.90
4687;DHT22;2357;47.316;-1.348;2024-03-29T13:12:46;15.40;99.90
4687;DHT22;2357;47.316;-1.348;2024-03-29T13:15:22;15.30;99.90
4687;DHT22;2357;47.316;-1.348;2024-03-29T13:17:51;15.20;99.90
4687;DHT22;2357;47.316;-1.348;2024-03-29T13:20:17;15.30;99.90
4687;DHT22;2357;47.316;-1.348;2024-03-29T13:22:44;15.20;99.90
4687;DHT22;2357;47.316;-1.348;2024-03-29T13:25:17;15.30;99.90
4687;DHT22;2357;47.316;-1.348;2024-03-29T13:27:45;15.00;99.90
4687;DHT22;2357;47.316;-1.348;2024-03-29T13:30:12;14.90;99.90
4687;DHT22;2357;47.316;-1.348;2024-03-29T13:32:39;15.00;99.90
4687;DHT22;2357;47.316;-1.348;2024-03-29T13:35:06;15.00;99.90
4687;DHT22;2357;47.316;-1.348;2024-03-29T13:37:37;15.10;99.90
4687;DHT22;2357;47.316;-1.348;2024-03-29T13:40:04;15.00;99.90
4687;DHT22;2357;47.316;-1.348;2024-03-29T13:42:30;15.00;99.90
4687;DHT22;2357;47.316;-1.348;2024-03-29T13:44:56;14.70;99.90
4687;DHT22;2357;47.316;-1.348;2024-03-29T13:47:22;14.80;99.90
4687;DHT22;2357;47.316;-1.348;2024-03-29T13:49:48;14.70;99.90
4687;DHT22;2357;47.316;-1.348;2024-03-29T13:52:18;14.80;99.90
4687;DHT22;2357;47.316;-1.348;2024-03-29T13:54:44;14.90;99.90
4687;DHT22;2357;47.316;-1.348;2024-03-29T13:57:16;14.90;99.90
4687;DHT22;2357;47.316;-1.348;2024-03-29T13:59:45;15.00;99.90
4687;DHT22;2357;47.316;-1.348;2024-03-29T14:02:12;15.00;99.90
4687;DHT22;2357;47.316;-1.348;2024-03-29T14:04:39;14.80;99.90
4687;DHT22;2357;47.316;-1.348;2024-03-29T14:07:05;15.00;99.90
4687;DHT22;2357;47.316;-1.348;2024-03-29T14:09:36;14.90;99.90
4687;DHT22;2357;47.316;-1.348;2024-03-29T14:12:02;14.90;99.90
4687;DHT22;2357;47.316;-1.348;2024-03-29T14:14:29;15.10;99.90
4687;DHT22;2357;47.316;-1.348;2024-03-29T14:16:55;15.00;99.90
4687;DHT22;2357;47.316;-1.348;2024-03-29T14:19:21;15.00;99.90
4687;DHT22;2357;47.316;-1.348;2024-03-29T14:21:46;15.10;99.90
4687;DHT22;2357;47.316;-1.348;2024-03-29T14:24:12;15.10;99.90
4687;DHT22;2357;47.316;-1.348;2024-03-29T14:26:38;15.00;99.90
4687;DHT22;2357;47.316;-1.348;2024-03-29T14:29:04;14.80;99.90
4687;DHT22;2357;47.316;-1.348;2024-03-29T14:31:32;14.80;99.90
4687;DHT22;2357;47.316;-1.348;2024-03-29T14:33:58;14.70;99.90
4687;DHT22;2357;47.316;-1.348;2024-03-29T14:36:23;14.80;99.90
4687;DHT22;2357;47.316;-1.348;2024-03-29T14:38:50;14.90;99.90
4687;DHT22;2357;47.316;-1.348;2024-03-29T14:41:15;15.00;99.90
4687;DHT22;2357;47.316;-1.348;2024-03-29T14:43:41;14.70;99.90
4687;DHT22;2357;47.316;-1.348;2024-03-29T14:46:07;14.90;99.90
4687;DHT22;2357;47.316;-1.348;2024-03-29T14:48:32;14.90;99.90
4687;DHT22;2357;47.316;-1.348;2024-03-29T14:50:58;14.90;99.90
4687;DHT22;2357;47.316;-1.348;2024-03-29T14:55:50;14.90;99.90
4687;DHT22;2357;47.316;-1.348;2024-03-29T14:58:16;15.10;99.90
4687;DHT22;2357;47.316;-1.348;2024-03-29T15:00:41;15.00;99.90
4687;DHT22;2357;47.316;-1.348;2024-03-29T15:03:09;15.00;99.90
4687;DHT22;2357;47.316;-1.348;2024-03-29T15:05:34;15.00;99.90
4687;DHT22;2357;47.316;-1.348;2024-03-29T15:08:01;15.20;99.90
4687;DHT22;2357;47.316;-1.348;2024-03-29T15:10:26;15.00;99.90
4687;DHT22;2357;47.316;-1.348;2024-03-29T15:12:52;14.80;99.90
4687;DHT22;2357;47.316;-1.348;2024-03-29T15:15:18;14.60;99.90
4687;DHT22;2357;47.316;-1.348;2024-03-29T15:17:44;14.70;99.90
4687;DHT22;2357;47.316;-1.348;2024-03-29T15:20:10;14.60;99.90
4687;DHT22;2357;47.316;-1.348;2024-03-29T15:22:37;14.50;99.90
4687;DHT22;2357;47.316;-1.348;2024-03-29T15:25:03;14.50;99.90
4687;DHT22;2357;47.316;-1.348;2024-03-29T15:27:29;14.60;99.90
4687;DHT22;2357;47.316;-1.348;2024-03-29T15:30:14;14.60;99.90
4687;DHT22;2357;47.316;-1.348;2024-03-29T15:32:40;14.40;99.90
4687;DHT22;2357;47.316;-1.348;2024-03-29T15:35:07;14.40;99.90
4687;DHT22;2357;47.316;-1.348;2024-03-29T15:37:33;14.40;99.90
4687;DHT22;2357;47.316;-1.348;2024-03-29T15:39:59;14.50;99.90
4687;DHT22;2357;47.316;-1.348;2024-03-29T15:42:25;14.40;99.90
4687;DHT22;2357;47.316;-1.348;2024-03-29T15:44:50;14.30;99.90
4687;DHT22;2357;47.316;-1.348;2024-03-29T15:47:16;14.40;99.90
4687;DHT22;2357;47.316;-1.348;2024-03-29T15:49:42;14.40;99.90
4687;DHT22;2357;47.316;-1.348;2024-03-29T15:52:07;14.40;99.90
4687;DHT22;2357;47.316;-1.348;2024-03-29T15:54:34;14.30;99.90
4687;DHT22;2357;47.316;-1.348;2024-03-29T15:57:00;14.30;99.90
4687;DHT22;2357;47.316;-1.348;2024-03-29T15:59:26;14.30;99.90
4687;DHT22;2357;47.316;-1.348;2024-03-29T16:01:52;14.40;99.90
4687;DHT22;2357;47.316;-1.348;2024-03-29T16:04:17;14.20;99.90